createdAt,value
2018-06-05T00:02:03.911Z,18.22
2018-06-05T00:05:28.712Z,18.02
2018-06-05T00:08:53.429Z,18.08
2018-06-05T00:12:18.376Z,17.98
2018-06-05T00:15:43.055Z,17.80
2018-06-05T00:19:07.811Z,18.32
2018-06-05T00:22:32.658Z,18.24
2018-06-05T00:25:57.481Z,18.11
2018-06-05T00:29:22.337Z,17.99
2018-06-05T00:32:47.187Z,18.39
2018-06-05T00:36:12.075Z,18.49
2018-06-05T00:39:37.060Z,18.52
2018-06-05T00:43:02.248Z,18.57
2018-06-05T00:46:27.215Z,18.12
2018-06-05T00:49:52.095Z,17.86
2018-06-05T00:53:17.591Z,17.82
2018-06-05T00:56:42.573Z,17.63
2018-06-05T01:00:07.415Z,17.74
2018-06-05T01:03:32.292Z,17.82
2018-06-05T01:06:57.155Z,18.12
2018-06-05T01:10:21.821Z,17.93
2018-06-05T01:13:46.612Z,17.68
2018-06-05T01:17:11.415Z,17.63
2018-06-05T01:20:36.268Z,17.79
2018-06-05T01:24:01.197Z,17.83
2018-06-05T01:27:25.671Z,17.67
2018-06-05T01:30:50.537Z,18.01
2018-06-05T01:34:15.691Z,17.82
2018-06-05T01:37:40.527Z,17.94
2018-06-05T01:41:05.267Z,17.70
2018-06-05T01:45:54.654Z,17.50
2018-06-05T01:49:19.013Z,17.36
2018-06-05T01:52:43.817Z,17.57
2018-06-05T01:56:08.748Z,17.53
2018-06-05T01:59:33.603Z,17.50
2018-06-05T02:02:58.392Z,17.36
2018-06-05T02:06:23.291Z,17.74
2018-06-05T02:09:48.105Z,17.60
2018-06-05T02:13:12.970Z,17.52
2018-06-05T02:16:37.801Z,17.43
2018-06-05T02:20:02.550Z,17.97
2018-06-05T02:23:27.512Z,18.17
2018-06-05T02:26:52.352Z,17.84
2018-06-05T02:30:17.226Z,17.59
2018-06-05T02:33:41.997Z,17.83
2018-06-05T02:37:06.812Z,18.05
2018-06-05T02:40:31.643Z,18.09
2018-06-05T02:43:56.532Z,17.97
2018-06-05T02:47:21.343Z,18.05
2018-06-05T02:50:46.127Z,18.39
2018-06-05T02:54:10.946Z,18.10
2018-06-05T02:57:35.796Z,18.57
2018-06-05T03:01:00.757Z,18.52
2018-06-05T03:04:25.579Z,18.40
2018-06-05T03:07:50.415Z,18.13
2018-06-05T03:11:16.661Z,17.89
2018-06-05T03:14:41.490Z,17.93
2018-06-05T03:18:06.299Z,18.26
2018-06-05T03:21:31.058Z,18.26
2018-06-05T03:24:55.733Z,17.93
2018-06-05T03:28:20.665Z,17.93
2018-06-05T03:31:45.364Z,18.10
2018-06-05T03:35:10.172Z,17.86
2018-06-05T03:38:36.290Z,17.80
2018-06-05T03:42:01.104Z,17.60
2018-06-05T03:45:25.968Z,17.84
2018-06-05T03:48:50.359Z,17.69
2018-06-05T03:52:15.153Z,18.09
2018-06-05T03:55:39.999Z,18.07
2018-06-05T03:59:04.762Z,17.87
2018-06-05T04:02:29.661Z,18.14
2018-06-05T04:05:54.485Z,17.88
2018-06-05T04:09:19.163Z,17.72
2018-06-05T04:12:43.899Z,17.90
2018-06-05T04:16:08.621Z,18.06
2018-06-05T04:19:33.299Z,17.91
2018-06-05T04:30:52.240Z,17.89
2018-06-05T04:34:17.185Z,17.72
2018-06-05T04:37:41.586Z,17.66
2018-06-05T04:41:06.393Z,17.75
2018-06-05T04:44:31.182Z,17.92
2018-06-05T04:47:55.854Z,17.93
2018-06-05T04:51:20.724Z,17.91
2018-06-05T04:54:45.421Z,18.05
2018-06-05T04:58:10.128Z,18.20
2018-06-05T05:01:34.938Z,18.39
2018-06-05T05:04:59.738Z,18.57
2018-06-05T05:08:24.447Z,18.75
2018-06-05T05:11:49.503Z,18.67
2018-06-05T05:15:14.344Z,18.86
2018-06-05T05:19:12.976Z,18.77
2018-06-05T05:22:37.707Z,19.02
2018-06-05T05:26:02.561Z,19.03
2018-06-05T05:29:27.337Z,19.19
2018-06-05T05:32:52.219Z,19.28
2018-06-05T05:36:17.134Z,19.29
2018-06-05T05:39:41.876Z,19.53
2018-06-05T05:43:06.940Z,19.73
2018-06-05T05:46:31.638Z,19.81
2018-06-05T05:49:56.475Z,19.88
2018-06-05T05:53:21.127Z,19.84
2018-06-05T05:56:45.806Z,19.83
2018-06-05T06:00:10.516Z,19.81
2018-06-05T06:03:35.223Z,19.85
2018-06-05T06:06:59.695Z,19.86
2018-06-05T06:10:24.437Z,19.96
2018-06-05T06:13:49.144Z,19.92
2018-06-05T06:17:13.779Z,20.02
2018-06-05T06:20:38.439Z,19.99
2018-06-05T06:24:03.234Z,20.07
2018-06-05T06:27:27.945Z,20.40
2018-06-05T06:30:52.655Z,20.23
2018-06-05T06:34:17.470Z,20.35
2018-06-05T06:37:42.391Z,20.52
2018-06-05T06:41:07.164Z,20.33
2018-06-05T06:44:31.988Z,20.52
2018-06-05T06:47:56.617Z,20.66
2018-06-05T06:51:21.278Z,20.89
2018-06-05T06:54:46.160Z,21.00
2018-06-05T06:58:10.881Z,20.99
2018-06-05T07:01:35.634Z,20.68
2018-06-05T07:05:00.241Z,20.74
2018-06-05T07:08:25.022Z,20.66
2018-06-05T07:11:49.414Z,20.54
2018-06-05T07:15:14.109Z,20.46
2018-06-05T07:18:38.858Z,20.72
2018-06-05T07:22:03.509Z,20.93
2018-06-05T07:25:27.828Z,20.70
2018-06-05T07:28:52.707Z,21.01
2018-06-05T07:32:17.320Z,21.15
2018-06-05T07:35:42.076Z,21.45
2018-06-05T07:39:09.262Z,21.62
2018-06-05T07:42:34.058Z,21.58
2018-06-05T07:45:58.824Z,21.86
2018-06-05T07:49:23.166Z,22.00
2018-06-05T07:52:47.848Z,22.56
2018-06-05T07:56:12.692Z,22.59
2018-06-05T07:59:37.367Z,22.02
2018-06-05T08:03:02.096Z,21.72
2018-06-05T08:06:26.845Z,21.35
2018-06-05T08:09:51.700Z,21.53
2018-06-05T08:13:16.404Z,21.70
2018-06-05T08:16:41.119Z,21.95
2018-06-05T08:20:05.973Z,21.92
2018-06-05T08:23:30.619Z,22.10
2018-06-05T08:26:55.323Z,22.12
2018-06-05T08:30:20.333Z,22.23
2018-06-05T08:33:45.042Z,22.23
2018-06-05T08:37:09.972Z,21.55
2018-06-05T08:40:34.795Z,21.68
2018-06-05T08:43:59.539Z,21.38
2018-06-05T08:47:24.271Z,22.02
2018-06-05T08:50:48.946Z,22.15
2018-06-05T08:54:13.367Z,22.10
2018-06-05T08:57:38.036Z,22.12
2018-06-05T09:01:02.765Z,22.34
2018-06-05T09:04:27.042Z,22.65
2018-06-05T09:07:51.760Z,22.76
2018-06-05T09:11:16.534Z,23.29
2018-06-05T09:14:41.225Z,22.87
2018-06-05T09:18:05.996Z,22.60
2018-06-05T09:21:30.351Z,23.01
2018-06-05T09:24:55.060Z,23.29
2018-06-05T09:28:19.819Z,23.05
2018-06-05T09:31:44.118Z,23.10
2018-06-05T09:35:08.828Z,22.91
2018-06-05T09:38:33.606Z,23.10
2018-06-05T09:41:58.339Z,23.28
2018-06-05T09:45:23.102Z,23.40
2018-06-05T09:48:47.841Z,24.04
2018-06-05T09:52:12.490Z,24.01
2018-06-05T09:55:37.220Z,24.29
2018-06-05T09:59:01.924Z,24.54
2018-06-05T10:02:26.720Z,24.67
2018-06-05T10:05:51.386Z,24.78
2018-06-05T10:09:16.121Z,24.88
2018-06-05T10:12:40.444Z,24.75
2018-06-05T10:16:05.979Z,24.33
2018-06-05T10:19:30.969Z,23.85
2018-06-05T10:22:55.796Z,24.08
2018-06-05T10:26:20.569Z,23.99
2018-06-05T10:29:45.266Z,24.13
2018-06-05T10:33:10.556Z,24.80
2018-06-05T10:36:40.063Z,24.96
2018-06-05T10:40:05.850Z,25.71
2018-06-05T10:43:31.160Z,25.67
2018-06-05T10:46:57.048Z,25.63
2018-06-05T10:50:22.143Z,24.71
2018-06-05T10:53:47.099Z,24.93
2018-06-05T10:57:11.741Z,25.53
2018-06-05T11:00:36.590Z,25.78
2018-06-05T11:04:01.481Z,25.51
2018-06-05T11:07:26.233Z,25.04
2018-06-05T11:10:50.932Z,25.56
2018-06-05T11:14:16.250Z,25.59
2018-06-05T11:17:41.078Z,25.12
2018-06-05T11:21:05.835Z,24.59
2018-06-05T11:24:30.618Z,24.83
2018-06-05T11:27:54.974Z,25.96
2018-06-05T11:31:19.872Z,25.38
2018-06-05T11:34:44.588Z,26.12
2018-06-05T11:38:09.492Z,25.60
2018-06-05T11:41:33.874Z,25.77
2018-06-05T11:44:58.830Z,24.89
2018-06-05T11:48:23.598Z,25.10
2018-06-05T11:51:48.644Z,25.97
2018-06-05T11:55:13.275Z,25.69
2018-06-05T11:58:37.958Z,25.49
2018-06-05T12:02:12.514Z,26.39
2018-06-05T12:05:37.274Z,25.93
2018-06-05T12:09:01.763Z,26.00
2018-06-05T12:12:26.548Z,26.67
2018-06-05T12:15:51.260Z,26.49
2018-06-05T12:19:16.015Z,26.56
2018-06-05T12:22:40.885Z,26.80
2018-06-05T12:26:05.528Z,27.25
2018-06-05T12:29:31.382Z,27.28
2018-06-05T12:32:56.010Z,26.79
2018-06-05T12:36:20.914Z,27.26
2018-06-05T12:39:45.624Z,27.71
2018-06-05T12:43:10.330Z,26.85
2018-06-05T12:46:35.326Z,26.58
2018-06-05T12:50:00.124Z,26.26
2018-06-05T12:53:24.902Z,26.22
2018-06-05T12:56:49.817Z,26.56
2018-06-05T13:00:14.668Z,27.08
2018-06-05T13:03:39.371Z,27.39
2018-06-05T13:07:04.248Z,27.30
2018-06-05T13:10:29.117Z,26.76
2018-06-05T13:13:54.043Z,27.21
2018-06-05T13:17:18.958Z,27.17
2018-06-05T13:20:45.012Z,27.01
2018-06-05T13:24:10.290Z,27.74
2018-06-05T13:27:36.347Z,27.22
2018-06-05T13:31:01.585Z,26.92
2018-06-05T13:34:25.930Z,26.97
2018-06-05T13:37:50.656Z,27.91
2018-06-05T13:41:15.532Z,28.48
2018-06-05T13:44:40.190Z,28.55
2018-06-05T13:48:04.535Z,28.28
2018-06-05T13:51:29.382Z,28.54
2018-06-05T13:54:53.815Z,28.09
2018-06-05T13:58:22.712Z,28.42
2018-06-05T14:01:48.988Z,28.91
2018-06-05T14:05:15.624Z,28.80
2018-06-05T14:08:41.280Z,28.44
2018-06-05T14:12:07.055Z,28.85
2018-06-05T14:15:32.784Z,28.67
2018-06-05T14:18:59.828Z,29.11
2018-06-05T14:22:24.698Z,29.31
2018-06-05T14:25:50.644Z,29.30
2018-06-05T14:29:16.587Z,29.17
2018-06-05T14:32:43.094Z,29.25
2018-06-05T14:36:12.339Z,29.72
2018-06-05T14:39:37.598Z,28.88
2018-06-05T14:43:02.618Z,29.70
2018-06-05T14:46:28.692Z,30.02
2018-06-05T14:49:56.138Z,30.00
2018-06-05T14:54:03.011Z,28.83
2018-06-05T14:57:35.408Z,29.19
2018-06-05T15:01:01.405Z,29.16
2018-06-05T15:04:28.255Z,29.38
2018-06-05T15:07:53.720Z,28.60
2018-06-05T15:11:19.920Z,28.32
2018-06-05T15:14:46.377Z,28.21
2018-06-05T15:18:21.263Z,29.51
2018-06-05T15:21:48.163Z,29.89
2018-06-05T15:26:37.700Z,29.85
2018-06-05T15:30:03.591Z,30.86
2018-06-05T15:33:28.802Z,31.25
2018-06-05T15:36:53.530Z,31.73
2018-06-05T15:40:18.285Z,31.56
2018-06-05T15:43:43.065Z,31.90
2018-06-05T15:47:07.883Z,31.90
2018-06-05T15:50:32.664Z,31.51
2018-06-05T15:53:57.385Z,32.17
2018-06-05T15:57:22.323Z,31.53
2018-06-05T16:00:47.606Z,30.63
2018-06-05T16:04:12.574Z,30.79
2018-06-05T16:07:37.335Z,31.58
2018-06-05T16:11:02.000Z,31.89
2018-06-05T16:14:26.783Z,31.99
2018-06-05T16:17:52.634Z,31.81
2018-06-05T16:21:17.613Z,31.53
2018-06-05T16:24:43.263Z,31.45
2018-06-05T16:28:08.069Z,31.39
2018-06-05T16:31:32.937Z,30.69
2018-06-05T16:34:57.733Z,30.59
2018-06-05T16:38:22.511Z,30.11
2018-06-05T16:41:48.367Z,30.25
2018-06-05T16:45:13.487Z,31.00
2018-06-05T16:48:38.380Z,30.69
2018-06-05T16:52:03.098Z,31.19
2018-06-05T16:55:27.893Z,31.77
2018-06-05T16:58:52.704Z,31.78
2018-06-05T17:02:17.544Z,31.76
2018-06-05T17:05:42.255Z,30.61
2018-06-05T17:09:10.994Z,30.21
2018-06-05T17:12:36.123Z,30.46
2018-06-05T17:16:06.587Z,31.21
2018-06-05T17:19:31.562Z,31.01
2018-06-05T17:22:55.871Z,31.34
2018-06-05T17:26:20.834Z,31.75
2018-06-05T17:29:45.645Z,31.86
2018-06-05T17:33:11.538Z,31.17
2018-06-05T17:36:36.356Z,31.99
2018-06-05T17:40:01.188Z,31.06
2018-06-05T17:43:26.204Z,30.93
2018-06-05T17:46:51.616Z,30.32
2018-06-05T17:50:16.782Z,30.48
2018-06-05T17:53:41.473Z,30.44
2018-06-05T17:57:06.399Z,30.56
2018-06-05T18:00:31.159Z,30.47
2018-06-05T18:03:56.126Z,30.84
2018-06-05T18:07:21.070Z,29.40
2018-06-05T18:10:45.967Z,28.77
2018-06-05T18:14:10.570Z,28.62
2018-06-05T18:17:35.424Z,28.99
2018-06-05T18:21:00.540Z,28.12
2018-06-05T18:24:25.017Z,27.86
2018-06-05T18:27:50.098Z,27.17
2018-06-05T18:31:15.946Z,27.00
2018-06-05T18:34:41.301Z,26.34
2018-06-05T18:39:30.833Z,26.35
2018-06-05T18:42:56.010Z,26.03
2018-06-05T18:46:22.247Z,25.78
2018-06-05T18:49:48.364Z,25.64
2018-06-05T18:56:49.661Z,25.35
2018-06-05T19:00:14.525Z,25.35
2018-06-05T19:03:40.814Z,25.24
2018-06-05T19:11:36.868Z,24.89
2018-06-05T19:15:01.819Z,24.73
2018-06-05T19:18:27.942Z,24.38
2018-06-05T19:21:52.951Z,24.05
2018-06-05T19:25:17.762Z,24.02
2018-06-05T19:28:42.600Z,23.98
2018-06-05T19:32:07.521Z,23.54
2018-06-05T19:35:32.290Z,23.47
2018-06-05T19:38:58.194Z,23.36
2018-06-05T19:42:23.036Z,23.23
2018-06-05T19:45:47.825Z,23.13
2018-06-05T19:49:12.578Z,23.30
2018-06-05T19:52:37.347Z,23.09
2018-06-05T19:56:02.112Z,23.02
2018-06-05T19:59:26.876Z,23.00
2018-06-05T20:02:51.630Z,22.91
2018-06-05T20:06:16.505Z,22.93
2018-06-05T20:09:42.291Z,22.75
2018-06-05T20:13:08.633Z,22.66
2018-06-05T20:16:33.461Z,22.67
2018-06-05T20:19:58.832Z,22.56
2018-06-05T20:23:23.634Z,22.55
2018-06-05T20:26:48.380Z,22.72
2018-06-05T20:30:13.174Z,22.53
2018-06-05T20:33:38.130Z,22.44
2018-06-05T20:41:42.687Z,22.31
2018-06-05T20:45:07.857Z,22.20
2018-06-05T20:48:33.802Z,22.22
2018-06-05T20:51:59.432Z,22.15
2018-06-05T20:55:24.431Z,22.16
2018-06-05T20:58:49.450Z,22.04
2018-06-05T21:02:14.455Z,21.99
2018-06-05T21:05:39.347Z,22.08
2018-06-05T21:09:05.195Z,22.16
2018-06-05T21:12:30.247Z,21.84
2018-06-05T21:15:55.185Z,21.84
2018-06-05T21:19:20.306Z,21.84
2018-06-05T21:22:45.169Z,21.99
2018-06-05T21:26:10.654Z,22.01
2018-06-05T21:29:35.697Z,21.88
2018-06-05T21:33:00.527Z,22.01
2018-06-05T21:36:26.371Z,21.80
2018-06-05T21:39:51.238Z,21.61
2018-06-05T21:43:16.154Z,21.59
2018-06-05T21:46:41.243Z,21.51
2018-06-05T21:50:06.308Z,21.57
2018-06-05T21:53:31.139Z,21.29
2018-06-05T21:56:56.018Z,21.44
2018-06-05T22:00:24.452Z,21.35
2018-06-05T22:03:49.404Z,21.10
2018-06-05T22:07:14.256Z,21.24
2018-06-05T22:10:39.147Z,21.28
2018-06-05T22:14:04.128Z,21.11
2018-06-05T22:17:29.043Z,21.03
2018-06-05T22:20:53.997Z,21.04
2018-06-05T22:24:18.910Z,20.92
2018-06-05T22:27:43.845Z,21.09
2018-06-05T22:31:08.539Z,20.99
2018-06-05T22:34:33.433Z,21.02
2018-06-05T22:37:59.333Z,20.90
2018-06-05T22:41:24.173Z,20.96
2018-06-05T22:44:49.086Z,20.95
2018-06-05T22:48:14.120Z,20.69
2018-06-05T22:51:39.182Z,20.87
2018-06-05T22:55:05.177Z,20.54
2018-06-05T22:58:30.015Z,20.64
2018-06-05T23:01:54.786Z,20.65
2018-06-05T23:05:19.721Z,20.87
2018-06-05T23:08:45.828Z,20.85
2018-06-05T23:12:10.827Z,20.77
2018-06-05T23:15:35.741Z,20.76
2018-06-05T23:19:00.637Z,20.70
2018-06-05T23:22:25.607Z,20.70
2018-06-05T23:25:50.659Z,20.66
2018-06-05T23:29:15.595Z,20.66
2018-06-05T23:32:40.549Z,20.48
2018-06-05T23:36:05.407Z,20.65
2018-06-05T23:39:30.252Z,20.56
2018-06-05T23:42:55.174Z,20.54
2018-06-05T23:46:20.180Z,20.42
2018-06-05T23:49:45.053Z,20.46
2018-06-05T23:53:09.997Z,20.77
2018-06-05T23:56:35.798Z,20.54
